sensor_id;sensor_type;location;lat;lon;timestamp;P1;durP1;ratioP1;P2;durP2;ratioP2
61978;SDS011;47938;48.176;16.414;2023-02-03T00:00:17;6.85;;;2.58;;
61978;SDS011;47938;48.176;16.414;2023-02-03T00:02:43;7.63;;;3.20;;
61978;SDS011;47938;48.176;16.414;2023-02-03T00:05:09;3.90;;;3.03;;
61978;SDS011;47938;48.176;16.414;2023-02-03T00:07:35;5.93;;;3.22;;
61978;SDS011;47938;48.176;16.414;2023-02-03T00:10:02;4.63;;;2.63;;
61978;SDS011;47938;48.176;16.414;2023-02-03T00:12:28;3.28;;;2.45;;
61978;SDS011;47938;48.176;16.414;2023-02-03T00:14:54;7.85;;;3.15;;
61978;SDS011;47938;48.176;16.414;2023-02-03T00:17:19;33.33;;;5.78;;
61978;SDS011;47938;48.176;16.414;2023-02-03T00:19:45;16.40;;;3.65;;
61978;SDS011;47938;48.176;16.414;2023-02-03T00:22:10;17.75;;;3.65;;
61978;SDS011;47938;48.176;16.414;2023-02-03T00:24:36;4.55;;;2.75;;
61978;SDS011;47938;48.176;16.414;2023-02-03T00:27:02;10.50;;;3.22;;
61978;SDS011;47938;48.176;16.414;2023-02-03T00:29:27;4.72;;;2.83;;
61978;SDS011;47938;48.176;16.414;2023-02-03T00:31:53;4.03;;;3.35;;
61978;SDS011;47938;48.176;16.414;2023-02-03T00:34:19;5.25;;;3.33;;
61978;SDS011;47938;48.176;16.414;2023-02-03T00:36:45;6.53;;;3.20;;
61978;SDS011;47938;48.176;16.414;2023-02-03T00:39:11;7.45;;;3.42;;
61978;SDS011;47938;48.176;16.414;2023-02-03T00:41:36;4.88;;;4.13;;
61978;SDS011;47938;48.176;16.414;2023-02-03T00:44:02;6.13;;;3.72;;
61978;SDS011;47938;48.176;16.414;2023-02-03T00:46:27;6.85;;;4.55;;
61978;SDS011;47938;48.176;16.414;2023-02-03T00:48:53;19.65;;;5.90;;
61978;SDS011;47938;48.176;16.414;2023-02-03T00:51:19;11.48;;;4.20;;
61978;SDS011;47938;48.176;16.414;2023-02-03T00:53:44;5.57;;;3.35;;
61978;SDS011;47938;48.176;16.414;2023-02-03T00:56:11;6.50;;;3.85;;
61978;SDS011;47938;48.176;16.414;2023-02-03T00:58:37;7.47;;;4.18;;
61978;SDS011;47938;48.176;16.414;2023-02-03T01:01:03;5.25;;;3.42;;
61978;SDS011;47938;48.176;16.414;2023-02-03T01:03:29;5.63;;;3.50;;
61978;SDS011;47938;48.176;16.414;2023-02-03T01:05:55;5.95;;;4.00;;
61978;SDS011;47938;48.176;16.414;2023-02-03T01:08:20;5.78;;;3.50;;
61978;SDS011;47938;48.176;16.414;2023-02-03T01:10:46;6.75;;;3.50;;
61978;SDS011;47938;48.176;16.414;2023-02-03T01:13:12;3.72;;;3.33;;
61978;SDS011;47938;48.176;16.414;2023-02-03T01:15:41;4.22;;;3.15;;
61978;SDS011;47938;48.176;16.414;2023-02-03T01:18:10;43.83;;;6.70;;
61978;SDS011;47938;48.176;16.414;2023-02-03T01:20:36;13.57;;;3.50;;
61978;SDS011;47938;48.176;16.414;2023-02-03T01:23:01;6.05;;;3.75;;
61978;SDS011;47938;48.176;16.414;2023-02-03T01:25:27;4.00;;;3.30;;
61978;SDS011;47938;48.176;16.414;2023-02-03T01:27:53;4.10;;;3.42;;
61978;SDS011;47938;48.176;16.414;2023-02-03T01:30:18;5.82;;;3.22;;
61978;SDS011;47938;48.176;16.414;2023-02-03T01:32:44;3.95;;;3.22;;
61978;SDS011;47938;48.176;16.414;2023-02-03T01:35:09;4.85;;;3.05;;
61978;SDS011;47938;48.176;16.414;2023-02-03T01:37:35;4.35;;;3.17;;
61978;SDS011;47938;48.176;16.414;2023-02-03T01:40:00;3.97;;;3.20;;
61978;SDS011;47938;48.176;16.414;2023-02-03T01:42:26;7.65;;;3.97;;
61978;SDS011;47938;48.176;16.414;2023-02-03T01:44:55;6.53;;;3.88;;
61978;SDS011;47938;48.176;16.414;2023-02-03T01:47:29;25.42;;;6.15;;
61978;SDS011;47938;48.176;16.414;2023-02-03T01:52:41;4.35;;;3.15;;
61978;SDS011;47938;48.176;16.414;2023-02-03T01:55:10;4.03;;;3.42;;
61978;SDS011;47938;48.176;16.414;2023-02-03T01:57:42;3.58;;;2.78;;
61978;SDS011;47938;48.176;16.414;2023-02-03T02:00:16;4.97;;;3.25;;
61978;SDS011;47938;48.176;16.414;2023-02-03T02:02:42;4.55;;;3.60;;
61978;SDS011;47938;48.176;16.414;2023-02-03T02:05:31;6.50;;;2.90;;
61978;SDS011;47938;48.176;16.414;2023-02-03T02:08:17;4.07;;;3.10;;
61978;SDS011;47938;48.176;16.414;2023-02-03T02:10:43;4.88;;;3.08;;
61978;SDS011;47938;48.176;16.414;2023-02-03T02:13:09;6.80;;;3.20;;
61978;SDS011;47938;48.176;16.414;2023-02-03T02:15:59;3.80;;;2.83;;
61978;SDS011;47938;48.176;16.414;2023-02-03T02:26:46;5.65;;;2.55;;
61978;SDS011;47938;48.176;16.414;2023-02-03T02:32:34;3.92;;;1.80;;
61978;SDS011;47938;48.176;16.414;2023-02-03T02:35:29;4.47;;;2.00;;
61978;SDS011;47938;48.176;16.414;2023-02-03T02:44:06;1.92;;;1.10;;
61978;SDS011;47938;48.176;16.414;2023-02-03T02:49:19;5.15;;;1.45;;
61978;SDS011;47938;48.176;16.414;2023-02-03T02:51:54;2.80;;;1.17;;
61978;SDS011;47938;48.176;16.414;2023-02-03T02:54:22;2.58;;;1.15;;
61978;SDS011;47938;48.176;16.414;2023-02-03T02:56:51;3.42;;;1.20;;
61978;SDS011;47938;48.176;16.414;2023-02-03T02:59:19;2.03;;;1.10;;
61978;SDS011;47938;48.176;16.414;2023-02-03T03:01:45;2.88;;;1.10;;
61978;SDS011;47938;48.176;16.414;2023-02-03T03:04:11;1.80;;;1.10;;
61978;SDS011;47938;48.176;16.414;2023-02-03T03:06:43;2.78;;;1.17;;
61978;SDS011;47938;48.176;16.414;2023-02-03T03:09:38;2.80;;;1.20;;
61978;SDS011;47938;48.176;16.414;2023-02-03T03:12:05;1.70;;;1.20;;
61978;SDS011;47938;48.176;16.414;2023-02-03T03:14:31;2.63;;;1.30;;
61978;SDS011;47938;48.176;16.414;2023-02-03T03:17:01;1.85;;;1.20;;
61978;SDS011;47938;48.176;16.414;2023-02-03T03:19:34;2.17;;;1.02;;
61978;SDS011;47938;48.176;16.414;2023-02-03T03:22:05;1.55;;;0.95;;
61978;SDS011;47938;48.176;16.414;2023-02-03T03:24:33;4.13;;;1.30;;
61978;SDS011;47938;48.176;16.414;2023-02-03T03:27:13;2.15;;;1.10;;
61978;SDS011;47938;48.176;16.414;2023-02-03T03:30:08;1.60;;;1.00;;
61978;SDS011;47938;48.176;16.414;2023-02-03T03:32:34;2.67;;;1.30;;
61978;SDS011;47938;48.176;16.414;2023-02-03T03:35:00;2.38;;;1.20;;
61978;SDS011;47938;48.176;16.414;2023-02-03T03:37:30;2.88;;;1.17;;
61978;SDS011;47938;48.176;16.414;2023-02-03T03:40:16;3.20;;;1.20;;
61978;SDS011;47938;48.176;16.414;2023-02-03T03:42:56;2.72;;;1.55;;
61978;SDS011;47938;48.176;16.414;2023-02-03T03:50:36;2.63;;;1.67;;
61978;SDS011;47938;48.176;16.414;2023-02-03T03:53:09;2.58;;;1.63;;
61978;SDS011;47938;48.176;16.414;2023-02-03T03:55:37;2.47;;;1.00;;
61978;SDS011;47938;48.176;16.414;2023-02-03T03:58:12;2.22;;;1.15;;
61978;SDS011;47938;48.176;16.414;2023-02-03T04:00:43;1.67;;;0.90;;
61978;SDS011;47938;48.176;16.414;2023-02-03T04:03:15;2.10;;;1.20;;
61978;SDS011;47938;48.176;16.414;2023-02-03T04:05:45;1.60;;;1.13;;
61978;SDS011;47938;48.176;16.414;2023-02-03T04:08:11;3.90;;;1.10;;
61978;SDS011;47938;48.176;16.414;2023-02-03T04:10:37;1.38;;;0.80;;
61978;SDS011;47938;48.176;16.414;2023-02-03T04:13:05;1.73;;;0.90;;
61978;SDS011;47938;48.176;16.414;2023-02-03T04:15:32;1.63;;;1.00;;
61978;SDS011;47938;48.176;16.414;2023-02-03T04:17:58;2.90;;;1.10;;
61978;SDS011;47938;48.176;16.414;2023-02-03T04:20:24;2.20;;;0.82;;
61978;SDS011;47938;48.176;16.414;2023-02-03T04:22:51;1.10;;;0.70;;
61978;SDS011;47938;48.176;16.414;2023-02-03T04:25:16;1.85;;;1.05;;
61978;SDS011;47938;48.176;16.414;2023-02-03T04:27:42;2.88;;;0.80;;
61978;SDS011;47938;48.176;16.414;2023-02-03T04:30:08;1.98;;;0.88;;
61978;SDS011;47938;48.176;16.414;2023-02-03T04:32:34;2.80;;;1.00;;
61978;SDS011;47938;48.176;16.414;2023-02-03T04:35:00;3.20;;;1.13;;
61978;SDS011;47938;48.176;16.414;2023-02-03T04:37:27;3.90;;;1.40;;
61978;SDS011;47938;48.176;16.414;2023-02-03T04:39:53;4.50;;;1.20;;
61978;SDS011;47938;48.176;16.414;2023-02-03T04:42:19;1.30;;;0.70;;
61978;SDS011;47938;48.176;16.414;2023-02-03T04:44:45;15.98;;;3.13;;
61978;SDS011;47938;48.176;16.414;2023-02-03T04:47:10;3.60;;;0.90;;
61978;SDS011;47938;48.176;16.414;2023-02-03T04:49:36;3.30;;;0.90;;
61978;SDS011;47938;48.176;16.414;2023-02-03T04:52:02;1.52;;;0.82;;
61978;SDS011;47938;48.176;16.414;2023-02-03T04:54:27;2.83;;;1.00;;
61978;SDS011;47938;48.176;16.414;2023-02-03T04:56:53;1.30;;;0.70;;
61978;SDS011;47938;48.176;16.414;2023-02-03T04:59:19;1.95;;;0.90;;
61978;SDS011;47938;48.176;16.414;2023-02-03T05:01:44;5.25;;;1.23;;
61978;SDS011;47938;48.176;16.414;2023-02-03T05:04:10;1.63;;;0.90;;
61978;SDS011;47938;48.176;16.414;2023-02-03T05:06:36;1.95;;;0.90;;
61978;SDS011;47938;48.176;16.414;2023-02-03T05:09:01;2.50;;;1.15;;
61978;SDS011;47938;48.176;16.414;2023-02-03T05:11:27;2.60;;;1.20;;
61978;SDS011;47938;48.176;16.414;2023-02-03T05:13:53;4.07;;;1.00;;
61978;SDS011;47938;48.176;16.414;2023-02-03T05:16:18;3.35;;;1.30;;
61978;SDS011;47938;48.176;16.414;2023-02-03T05:18:44;3.13;;;1.08;;
61978;SDS011;47938;48.176;16.414;2023-02-03T05:21:10;2.70;;;1.20;;
61978;SDS011;47938;48.176;16.414;2023-02-03T05:23:35;3.47;;;0.93;;
61978;SDS011;47938;48.176;16.414;2023-02-03T05:26:01;3.22;;;1.20;;
61978;SDS011;47938;48.176;16.414;2023-02-03T05:28:27;3.17;;;1.05;;
61978;SDS011;47938;48.176;16.414;2023-02-03T05:30:53;4.25;;;1.25;;
61978;SDS011;47938;48.176;16.414;2023-02-03T05:33:18;2.50;;;1.38;;
61978;SDS011;47938;48.176;16.414;2023-02-03T05:35:44;1.67;;;1.00;;
61978;SDS011;47938;48.176;16.414;2023-02-03T05:38:09;3.72;;;2.13;;
61978;SDS011;47938;48.176;16.414;2023-02-03T05:40:35;2.03;;;1.20;;
61978;SDS011;47938;48.176;16.414;2023-02-03T05:43:00;2.95;;;1.42;;
61978;SDS011;47938;48.176;16.414;2023-02-03T05:45:26;2.00;;;1.20;;
61978;SDS011;47938;48.176;16.414;2023-02-03T05:47:52;2.10;;;1.15;;
61978;SDS011;47938;48.176;16.414;2023-02-03T05:50:17;3.92;;;1.10;;
61978;SDS011;47938;48.176;16.414;2023-02-03T05:52:43;4.63;;;1.38;;
61978;SDS011;47938;48.176;16.414;2023-02-03T05:55:08;3.08;;;1.20;;
61978;SDS011;47938;48.176;16.414;2023-02-03T05:57:34;2.55;;;0.90;;
61978;SDS011;47938;48.176;16.414;2023-02-03T06:00:00;2.95;;;0.88;;
61978;SDS011;47938;48.176;16.414;2023-02-03T06:02:25;1.23;;;0.80;;
61978;SDS011;47938;48.176;16.414;2023-02-03T06:04:51;2.38;;;0.90;;
61978;SDS011;47938;48.176;16.414;2023-02-03T06:07:16;1.98;;;0.98;;
61978;SDS011;47938;48.176;16.414;2023-02-03T06:09:42;3.67;;;1.10;;
61978;SDS011;47938;48.176;16.414;2023-02-03T06:12:08;1.55;;;0.80;;
61978;SDS011;47938;48.176;16.414;2023-02-03T06:14:33;1.85;;;0.93;;
61978;SDS011;47938;48.176;16.414;2023-02-03T06:16:59;2.17;;;0.95;;
61978;SDS011;47938;48.176;16.414;2023-02-03T06:19:24;3.80;;;0.80;;
61978;SDS011;47938;48.176;16.414;2023-02-03T06:21:50;1.65;;;1.10;;
61978;SDS011;47938;48.176;16.414;2023-02-03T06:24:16;1.30;;;0.80;;
61978;SDS011;47938;48.176;16.414;2023-02-03T06:26:41;4.55;;;1.05;;
61978;SDS011;47938;48.176;16.414;2023-02-03T06:29:07;2.45;;;1.02;;
61978;SDS011;47938;48.176;16.414;2023-02-03T06:31:32;1.73;;;0.82;;
61978;SDS011;47938;48.176;16.414;2023-02-03T06:33:58;4.30;;;0.73;;
61978;SDS011;47938;48.176;16.414;2023-02-03T06:36:24;2.65;;;0.93;;
61978;SDS011;47938;48.176;16.414;2023-02-03T06:38:49;2.67;;;0.90;;
61978;SDS011;47938;48.176;16.414;2023-02-03T06:41:15;1.65;;;1.00;;
61978;SDS011;47938;48.176;16.414;2023-02-03T06:43:40;4.70;;;0.80;;
61978;SDS011;47938;48.176;16.414;2023-02-03T06:46:06;3.20;;;0.80;;
61978;SDS011;47938;48.176;16.414;2023-02-03T06:48:32;4.38;;;1.05;;
61978;SDS011;47938;48.176;16.414;2023-02-03T06:50:57;2.88;;;0.82;;
61978;SDS011;47938;48.176;16.414;2023-02-03T06:53:23;1.60;;;1.00;;
61978;SDS011;47938;48.176;16.414;2023-02-03T06:55:48;1.60;;;0.98;;
61978;SDS011;47938;48.176;16.414;2023-02-03T06:58:14;1.88;;;1.00;;
61978;SDS011;47938;48.176;16.414;2023-02-03T07:00:40;2.03;;;1.05;;
61978;SDS011;47938;48.176;16.414;2023-02-03T07:03:05;3.80;;;1.13;;
61978;SDS011;47938;48.176;16.414;2023-02-03T07:05:31;3.13;;;1.38;;
61978;SDS011;47938;48.176;16.414;2023-02-03T07:07:56;2.67;;;0.90;;
61978;SDS011;47938;48.176;16.414;2023-02-03T07:10:22;2.08;;;0.85;;
61978;SDS011;47938;48.176;16.414;2023-02-03T07:12:48;2.13;;;1.00;;
61978;SDS011;47938;48.176;16.414;2023-02-03T07:15:13;5.25;;;1.35;;
61978;SDS011;47938;48.176;16.414;2023-02-03T07:17:39;2.55;;;1.30;;
61978;SDS011;47938;48.176;16.414;2023-02-03T07:20:05;1.92;;;0.90;;
61978;SDS011;47938;48.176;16.414;2023-02-03T07:22:30;1.60;;;1.10;;
61978;SDS011;47938;48.176;16.414;2023-02-03T07:24:56;1.50;;;0.80;;
61978;SDS011;47938;48.176;16.414;2023-02-03T07:27:21;3.35;;;1.25;;
61978;SDS011;47938;48.176;16.414;2023-02-03T07:29:47;1.40;;;0.80;;
61978;SDS011;47938;48.176;16.414;2023-02-03T07:32:13;2.28;;;0.98;;
61978;SDS011;47938;48.176;16.414;2023-02-03T07:34:39;2.22;;;1.02;;
61978;SDS011;47938;48.176;16.414;2023-02-03T07:37:04;4.35;;;1.00;;
61978;SDS011;47938;48.176;16.414;2023-02-03T07:39:30;2.55;;;1.20;;
61978;SDS011;47938;48.176;16.414;2023-02-03T07:41:55;1.50;;;1.00;;
61978;SDS011;47938;48.176;16.414;2023-02-03T07:44:21;4.57;;;1.13;;
61978;SDS011;47938;48.176;16.414;2023-02-03T07:46:47;5.63;;;1.30;;
61978;SDS011;47938;48.176;16.414;2023-02-03T07:49:12;2.85;;;1.08;;
61978;SDS011;47938;48.176;16.414;2023-02-03T07:51:38;2.22;;;1.17;;
61978;SDS011;47938;48.176;16.414;2023-02-03T07:54:05;2.70;;;1.40;;
61978;SDS011;47938;48.176;16.414;2023-02-03T07:56:30;4.32;;;1.80;;
61978;SDS011;47938;48.176;16.414;2023-02-03T07:58:57;2.70;;;1.10;;
61978;SDS011;47938;48.176;16.414;2023-02-03T08:01:23;4.10;;;1.17;;
61978;SDS011;47938;48.176;16.414;2023-02-03T08:03:49;5.50;;;1.52;;
61978;SDS011;47938;48.176;16.414;2023-02-03T08:06:15;4.38;;;1.38;;
61978;SDS011;47938;48.176;16.414;2023-02-03T08:08:41;3.47;;;1.42;;
61978;SDS011;47938;48.176;16.414;2023-02-03T08:11:06;1.80;;;1.30;;
61978;SDS011;47938;48.176;16.414;2023-02-03T08:13:32;2.75;;;1.60;;
61978;SDS011;47938;48.176;16.414;2023-02-03T08:15:58;3.85;;;1.70;;
61978;SDS011;47938;48.176;16.414;2023-02-03T08:18:23;3.10;;;1.58;;
61978;SDS011;47938;48.176;16.414;2023-02-03T08:20:49;5.50;;;1.42;;
61978;SDS011;47938;48.176;16.414;2023-02-03T08:23:15;2.85;;;1.48;;
61978;SDS011;47938;48.176;16.414;2023-02-03T08:25:40;2.25;;;1.50;;
61978;SDS011;47938;48.176;16.414;2023-02-03T08:28:06;10.70;;;1.50;;
61978;SDS011;47938;48.176;16.414;2023-02-03T08:30:31;1.83;;;1.20;;
61978;SDS011;47938;48.176;16.414;2023-02-03T08:32:57;4.28;;;1.20;;
61978;SDS011;47938;48.176;16.414;2023-02-03T08:35:23;3.67;;;1.20;;
61978;SDS011;47938;48.176;16.414;2023-02-03T08:37:49;2.13;;;1.30;;
61978;SDS011;47938;48.176;16.414;2023-02-03T08:40:14;1.75;;;1.10;;
61978;SDS011;47938;48.176;16.414;2023-02-03T08:42:40;4.00;;;1.80;;
61978;SDS011;47938;48.176;16.414;2023-02-03T08:45:06;2.85;;;1.23;;
61978;SDS011;47938;48.176;16.414;2023-02-03T08:47:32;2.25;;;1.40;;
61978;SDS011;47938;48.176;16.414;2023-02-03T08:49:58;4.70;;;1.30;;
61978;SDS011;47938;48.176;16.414;2023-02-03T08:52:23;2.25;;;1.15;;
61978;SDS011;47938;48.176;16.414;2023-02-03T08:54:49;3.85;;;2.00;;
61978;SDS011;47938;48.176;16.414;2023-02-03T08:57:15;3.72;;;1.92;;
61978;SDS011;47938;48.176;16.414;2023-02-03T08:59:41;3.58;;;1.25;;
61978;SDS011;47938;48.176;16.414;2023-02-03T09:02:10;2.50;;;1.40;;
61978;SDS011;47938;48.176;16.414;2023-02-03T09:04:41;4.28;;;1.67;;
61978;SDS011;47938;48.176;16.414;2023-02-03T09:07:07;2.40;;;1.33;;
61978;SDS011;47938;48.176;16.414;2023-02-03T09:09:33;6.03;;;1.52;;
61978;SDS011;47938;48.176;16.414;2023-02-03T09:11:58;4.28;;;1.40;;
61978;SDS011;47938;48.176;16.414;2023-02-03T09:14:24;3.00;;;1.75;;
61978;SDS011;47938;48.176;16.414;2023-02-03T09:16:50;3.83;;;1.50;;
61978;SDS011;47938;48.176;16.414;2023-02-03T09:19:15;6.07;;;1.63;;
61978;SDS011;47938;48.176;16.414;2023-02-03T09:21:41;2.78;;;1.50;;
61978;SDS011;47938;48.176;16.414;2023-02-03T09:24:06;3.05;;;1.70;;
61978;SDS011;47938;48.176;16.414;2023-02-03T09:26:32;3.28;;;1.15;;
61978;SDS011;47938;48.176;16.414;2023-02-03T09:28:58;3.70;;;1.65;;
61978;SDS011;47938;48.176;16.414;2023-02-03T09:31:23;2.72;;;1.40;;
61978;SDS011;47938;48.176;16.414;2023-02-03T09:33:49;2.45;;;1.23;;
61978;SDS011;47938;48.176;16.414;2023-02-03T09:36:14;4.22;;;1.35;;
61978;SDS011;47938;48.176;16.414;2023-02-03T09:38:40;2.88;;;1.60;;
61978;SDS011;47938;48.176;16.414;2023-02-03T09:41:32;2.17;;;1.00;;
61978;SDS011;47938;48.176;16.414;2023-02-03T09:44:27;1.70;;;1.05;;
61978;SDS011;47938;48.176;16.414;2023-02-03T09:47:02;1.73;;;0.85;;
61978;SDS011;47938;48.176;16.414;2023-02-03T09:49:38;1.35;;;0.77;;
61978;SDS011;47938;48.176;16.414;2023-02-03T09:52:17;3.15;;;1.17;;
61978;SDS011;47938;48.176;16.414;2023-02-03T09:58:20;1.73;;;0.80;;
61978;SDS011;47938;48.176;16.414;2023-02-03T10:00:22;3.35;;;0.90;;
61978;SDS011;47938;48.176;16.414;2023-02-03T10:03:07;1.95;;;0.88;;
61978;SDS011;47938;48.176;16.414;2023-02-03T10:06:09;3.88;;;1.10;;
61978;SDS011;47938;48.176;16.414;2023-02-03T10:19:28;5.03;;;1.23;;
61978;SDS011;47938;48.176;16.414;2023-02-03T10:22:19;2.33;;;1.00;;
61978;SDS011;47938;48.176;16.414;2023-02-03T10:24:52;4.60;;;1.52;;
61978;SDS011;47938;48.176;16.414;2023-02-03T10:29:49;2.60;;;1.10;;
61978;SDS011;47938;48.176;16.414;2023-02-03T10:32:22;2.63;;;0.80;;
61978;SDS011;47938;48.176;16.414;2023-02-03T10:34:50;5.95;;;1.33;;
61978;SDS011;47938;48.176;16.414;2023-02-03T10:39:55;5.15;;;1.00;;
61978;SDS011;47938;48.176;16.414;2023-02-03T10:42:22;6.28;;;1.42;;
61978;SDS011;47938;48.176;16.414;2023-02-03T10:44:51;4.20;;;1.30;;
61978;SDS011;47938;48.176;16.414;2023-02-03T10:47:43;2.95;;;1.27;;
61978;SDS011;47938;48.176;16.414;2023-02-03T10:50:17;3.75;;;1.27;;
61978;SDS011;47938;48.176;16.414;2023-02-03T10:52:45;3.17;;;1.60;;
61978;SDS011;47938;48.176;16.414;2023-02-03T10:55:27;1.90;;;1.13;;
61978;SDS011;47938;48.176;16.414;2023-02-03T10:57:55;5.80;;;1.85;;
61978;SDS011;47938;48.176;16.414;2023-02-03T11:00:22;4.15;;;1.85;;
61978;SDS011;47938;48.176;16.414;2023-02-03T11:02:54;2.90;;;1.20;;
61978;SDS011;47938;48.176;16.414;2023-02-03T11:05:26;4.40;;;1.20;;
61978;SDS011;47938;48.176;16.414;2023-02-03T11:07:52;2.85;;;1.38;;
61978;SDS011;47938;48.176;16.414;2023-02-03T11:10:25;8.68;;;1.30;;
61978;SDS011;47938;48.176;16.414;2023-02-03T11:15:59;3.53;;;1.05;;
61978;SDS011;47938;48.176;16.414;2023-02-03T11:18:35;5.40;;;1.35;;
61978;SDS011;47938;48.176;16.414;2023-02-03T11:21:21;5.03;;;1.60;;
61978;SDS011;47938;48.176;16.414;2023-02-03T11:23:52;1.95;;;0.80;;
61978;SDS011;47938;48.176;16.414;2023-02-03T11:26:23;3.58;;;1.80;;
61978;SDS011;47938;48.176;16.414;2023-02-03T11:29:01;3.28;;;1.38;;
61978;SDS011;47938;48.176;16.414;2023-02-03T11:31:30;2.25;;;1.13;;
61978;SDS011;47938;48.176;16.414;2023-02-03T11:34:05;3.92;;;0.93;;
61978;SDS011;47938;48.176;16.414;2023-02-03T11:36:39;3.65;;;0.95;;
61978;SDS011;47938;48.176;16.414;2023-02-03T11:39:09;2.80;;;1.20;;
61978;SDS011;47938;48.176;16.414;2023-02-03T11:41:47;2.40;;;1.10;;
61978;SDS011;47938;48.176;16.414;2023-02-03T11:44:21;2.10;;;0.90;;
61978;SDS011;47938;48.176;16.414;2023-02-03T11:46:56;2.08;;;1.13;;
61978;SDS011;47938;48.176;16.414;2023-02-03T12:00:47;4.45;;;1.58;;
61978;SDS011;47938;48.176;16.414;2023-02-03T12:09:01;2.55;;;1.02;;
61978;SDS011;47938;48.176;16.414;2023-02-03T12:28:55;2.80;;;0.80;;
61978;SDS011;47938;48.176;16.414;2023-02-03T12:37:07;2.80;;;1.10;;
61978;SDS011;47938;48.176;16.414;2023-02-03T12:39:54;1.52;;;0.90;;
61978;SDS011;47938;48.176;16.414;2023-02-03T12:42:26;3.40;;;1.10;;
61978;SDS011;47938;48.176;16.414;2023-02-03T12:45:04;2.88;;;1.02;;
61978;SDS011;47938;48.176;16.414;2023-02-03T12:48:30;1.88;;;0.75;;
61978;SDS011;47938;48.176;16.414;2023-02-03T12:50:42;4.00;;;1.55;;
61978;SDS011;47938;48.176;16.414;2023-02-03T12:53:10;1.75;;;0.90;;
61978;SDS011;47938;48.176;16.414;2023-02-03T12:55:54;4.03;;;1.35;;
61978;SDS011;47938;48.176;16.414;2023-02-03T12:58:37;2.10;;;0.88;;
61978;SDS011;47938;48.176;16.414;2023-02-03T13:01:05;2.50;;;0.90;;
61978;SDS011;47938;48.176;16.414;2023-02-03T13:03:40;2.83;;;0.85;;
61978;SDS011;47938;48.176;16.414;2023-02-03T13:09:20;6.82;;;1.00;;
61978;SDS011;47938;48.176;16.414;2023-02-03T13:14:37;2.20;;;0.98;;
61978;SDS011;47938;48.176;16.414;2023-02-03T13:17:14;2.70;;;1.40;;
61978;SDS011;47938;48.176;16.414;2023-02-03T13:19:50;4.43;;;1.30;;
61978;SDS011;47938;48.176;16.414;2023-02-03T13:22:22;5.53;;;1.10;;
61978;SDS011;47938;48.176;16.414;2023-02-03T13:24:50;2.35;;;1.10;;
61978;SDS011;47938;48.176;16.414;2023-02-03T13:32:57;3.65;;;1.25;;
61978;SDS011;47938;48.176;16.414;2023-02-03T13:43:12;4.32;;;1.00;;
61978;SDS011;47938;48.176;16.414;2023-02-03T13:45:45;2.92;;;1.10;;
61978;SDS011;47938;48.176;16.414;2023-02-03T13:50:44;1.30;;;0.85;;
61978;SDS011;47938;48.176;16.414;2023-02-03T13:55:53;1.77;;;1.00;;
61978;SDS011;47938;48.176;16.414;2023-02-03T13:58:23;2.88;;;1.08;;
61978;SDS011;47938;48.176;16.414;2023-02-03T14:05:51;1.92;;;0.98;;
61978;SDS011;47938;48.176;16.414;2023-02-03T14:13:52;2.97;;;1.45;;
61978;SDS011;47938;48.176;16.414;2023-02-03T14:16:22;2.00;;;1.05;;
61978;SDS011;47938;48.176;16.414;2023-02-03T14:18:49;2.92;;;1.02;;
61978;SDS011;47938;48.176;16.414;2023-02-03T14:21:17;2.50;;;1.38;;
61978;SDS011;47938;48.176;16.414;2023-02-03T14:23:54;2.22;;;1.08;;
61978;SDS011;47938;48.176;16.414;2023-02-03T14:26:27;1.92;;;1.10;;
61978;SDS011;47938;48.176;16.414;2023-02-03T14:28:59;2.38;;;1.15;;
61978;SDS011;47938;48.176;16.414;2023-02-03T14:31:26;4.82;;;1.85;;
61978;SDS011;47938;48.176;16.414;2023-02-03T14:36:30;3.08;;;1.33;;
61978;SDS011;47938;48.176;16.414;2023-02-03T14:38:57;2.85;;;1.08;;
61978;SDS011;47938;48.176;16.414;2023-02-03T14:41:31;1.80;;;1.10;;
61978;SDS011;47938;48.176;16.414;2023-02-03T14:44:13;2.90;;;1.00;;
61978;SDS011;47938;48.176;16.414;2023-02-03T14:58:18;3.15;;;1.30;;
61978;SDS011;47938;48.176;16.414;2023-02-03T15:00:51;2.45;;;1.20;;
61978;SDS011;47938;48.176;16.414;2023-02-03T15:03:18;5.25;;;1.38;;
61978;SDS011;47938;48.176;16.414;2023-02-03T15:05:49;5.10;;;1.00;;
61978;SDS011;47938;48.176;16.414;2023-02-03T15:08:30;4.60;;;1.60;;
61978;SDS011;47938;48.176;16.414;2023-02-03T15:13:53;3.42;;;1.20;;
61978;SDS011;47938;48.176;16.414;2023-02-03T15:16:21;2.15;;;1.00;;
61978;SDS011;47938;48.176;16.414;2023-02-03T15:18:58;2.28;;;0.90;;
61978;SDS011;47938;48.176;16.414;2023-02-03T15:21:25;2.67;;;1.50;;
61978;SDS011;47938;48.176;16.414;2023-02-03T15:23:51;2.38;;;1.08;;
61978;SDS011;47938;48.176;16.414;2023-02-03T15:26:21;2.92;;;1.60;;
61978;SDS011;47938;48.176;16.414;2023-02-03T15:28:56;4.47;;;1.40;;
61978;SDS011;47938;48.176;16.414;2023-02-03T15:33:54;4.30;;;1.40;;
61978;SDS011;47938;48.176;16.414;2023-02-03T15:36:32;1.60;;;0.90;;
61978;SDS011;47938;48.176;16.414;2023-02-03T15:39:08;4.40;;;1.35;;
61978;SDS011;47938;48.176;16.414;2023-02-03T15:41:45;2.85;;;1.08;;
61978;SDS011;47938;48.176;16.414;2023-02-03T15:44:38;4.43;;;1.48;;
61978;SDS011;47938;48.176;16.414;2023-02-03T15:47:05;2.05;;;1.08;;
61978;SDS011;47938;48.176;16.414;2023-02-03T15:49:40;1.65;;;1.05;;
61978;SDS011;47938;48.176;16.414;2023-02-03T15:52:09;3.53;;;1.50;;
61978;SDS011;47938;48.176;16.414;2023-02-03T15:54:41;2.22;;;1.27;;
61978;SDS011;47938;48.176;16.414;2023-02-03T15:57:16;4.72;;;1.35;;
61978;SDS011;47938;48.176;16.414;2023-02-03T16:02:30;1.42;;;0.80;;
61978;SDS011;47938;48.176;16.414;2023-02-03T16:05:05;1.67;;;0.90;;
61978;SDS011;47938;48.176;16.414;2023-02-03T16:07:44;2.50;;;1.17;;
61978;SDS011;47938;48.176;16.414;2023-02-03T16:13:16;2.35;;;1.50;;
61978;SDS011;47938;48.176;16.414;2023-02-03T16:15:55;2.03;;;1.05;;
61978;SDS011;47938;48.176;16.414;2023-02-03T16:18:37;3.78;;;1.20;;
61978;SDS011;47938;48.176;16.414;2023-02-03T16:21:04;2.55;;;1.25;;
61978;SDS011;47938;48.176;16.414;2023-02-03T16:23:30;2.13;;;1.10;;
61978;SDS011;47938;48.176;16.414;2023-02-03T16:29:08;2.10;;;1.08;;
61978;SDS011;47938;48.176;16.414;2023-02-03T16:31:38;1.52;;;0.75;;
61978;SDS011;47938;48.176;16.414;2023-02-03T16:34:15;1.48;;;0.90;;
61978;SDS011;47938;48.176;16.414;2023-02-03T16:36:43;2.75;;;1.02;;
61978;SDS011;47938;48.176;16.414;2023-02-03T16:39:09;1.70;;;0.98;;
61978;SDS011;47938;48.176;16.414;2023-02-03T16:41:36;1.63;;;1.00;;
61978;SDS011;47938;48.176;16.414;2023-02-03T16:44:02;2.63;;;1.05;;
61978;SDS011;47938;48.176;16.414;2023-02-03T16:46:28;2.85;;;1.30;;
61978;SDS011;47938;48.176;16.414;2023-02-03T16:48:53;2.25;;;1.20;;
61978;SDS011;47938;48.176;16.414;2023-02-03T16:51:19;2.08;;;1.20;;
61978;SDS011;47938;48.176;16.414;2023-02-03T16:53:45;1.95;;;1.10;;
61978;SDS011;47938;48.176;16.414;2023-02-03T16:56:11;2.03;;;1.10;;
61978;SDS011;47938;48.176;16.414;2023-02-03T16:58:37;2.25;;;1.23;;
61978;SDS011;47938;48.176;16.414;2023-02-03T17:01:03;5.70;;;1.80;;
61978;SDS011;47938;48.176;16.414;2023-02-03T17:03:29;6.25;;;1.60;;
61978;SDS011;47938;48.176;16.414;2023-02-03T17:06:00;2.75;;;1.33;;
61978;SDS011;47938;48.176;16.414;2023-02-03T17:08:28;1.90;;;1.17;;
61978;SDS011;47938;48.176;16.414;2023-02-03T17:10:53;2.05;;;1.20;;
61978;SDS011;47938;48.176;16.414;2023-02-03T17:13:20;4.10;;;1.20;;
61978;SDS011;47938;48.176;16.414;2023-02-03T17:15:47;3.10;;;1.35;;
61978;SDS011;47938;48.176;16.414;2023-02-03T17:18:15;3.42;;;1.63;;